sensor_id;sensor_type;location;lat;lon;timestamp;P1;durP1;ratioP1;P2;durP2;ratioP2
1088;SDS011;533;53.556;9.990;2022-07-04T00:02:42;7.37;;;4.87;;
1088;SDS011;533;53.556;9.990;2022-07-04T00:05:34;7.70;;;3.70;;
1088;SDS011;533;53.556;9.990;2022-07-04T00:08:25;8.47;;;4.80;;
1088;SDS011;533;53.556;9.990;2022-07-04T00:11:16;9.97;;;4.80;;
1088;SDS011;533;53.556;9.990;2022-07-04T00:14:06;4.97;;;3.80;;
1088;SDS011;533;53.556;9.990;2022-07-04T00:16:57;6.47;;;4.37;;
1088;SDS011;533;53.556;9.990;2022-07-04T00:19:48;7.60;;;5.20;;
1088;SDS011;533;53.556;9.990;2022-07-04T00:22:38;7.40;;;4.60;;
1088;SDS011;533;53.556;9.990;2022-07-04T00:25:29;8.10;;;4.10;;
1088;SDS011;533;53.556;9.990;2022-07-04T00:28:19;8.50;;;4.40;;
1088;SDS011;533;53.556;9.990;2022-07-04T00:31:10;9.10;;;5.77;;
1088;SDS011;533;53.556;9.990;2022-07-04T00:34:01;8.07;;;5.70;;
1088;SDS011;533;53.556;9.990;2022-07-04T00:36:51;11.77;;;5.33;;
1088;SDS011;533;53.556;9.990;2022-07-04T00:39:42;9.60;;;5.40;;
1088;SDS011;533;53.556;9.990;2022-07-04T00:42:32;7.60;;;6.20;;
1088;SDS011;533;53.556;9.990;2022-07-04T00:45:23;7.93;;;5.93;;
1088;SDS011;533;53.556;9.990;2022-07-04T00:48:13;11.40;;;7.40;;
1088;SDS011;533;53.556;9.990;2022-07-04T00:51:05;14.33;;;6.33;;
1088;SDS011;533;53.556;9.990;2022-07-04T00:53:56;8.17;;;7.00;;
1088;SDS011;533;53.556;9.990;2022-07-04T00:56:47;8.93;;;7.00;;
1088;SDS011;533;53.556;9.990;2022-07-04T00:59:37;8.53;;;7.10;;
1088;SDS011;533;53.556;9.990;2022-07-04T01:02:27;9.20;;;6.77;;
1088;SDS011;533;53.556;9.990;2022-07-04T01:05:18;11.60;;;7.63;;
1088;SDS011;533;53.556;9.990;2022-07-04T01:08:09;12.47;;;7.27;;
1088;SDS011;533;53.556;9.990;2022-07-04T01:11:00;11.40;;;7.73;;
1088;SDS011;533;53.556;9.990;2022-07-04T01:13:51;8.60;;;7.77;;
1088;SDS011;533;53.556;9.990;2022-07-04T01:16:43;14.63;;;8.27;;
1088;SDS011;533;53.556;9.990;2022-07-04T01:19:34;13.13;;;8.97;;
1088;SDS011;533;53.556;9.990;2022-07-04T01:22:25;13.40;;;8.90;;
1088;SDS011;533;53.556;9.990;2022-07-04T01:25:15;12.03;;;10.37;;
1088;SDS011;533;53.556;9.990;2022-07-04T01:28:06;13.70;;;10.07;;
1088;SDS011;533;53.556;9.990;2022-07-04T01:30:57;11.50;;;10.13;;
1088;SDS011;533;53.556;9.990;2022-07-04T01:33:48;13.20;;;9.60;;
1088;SDS011;533;53.556;9.990;2022-07-04T01:36:38;15.80;;;9.80;;
1088;SDS011;533;53.556;9.990;2022-07-04T01:39:29;14.57;;;9.57;;
1088;SDS011;533;53.556;9.990;2022-07-04T01:42:19;17.33;;;10.37;;
1088;SDS011;533;53.556;9.990;2022-07-04T01:45:10;17.60;;;10.93;;
1088;SDS011;533;53.556;9.990;2022-07-04T01:48:01;13.07;;;10.80;;
1088;SDS011;533;53.556;9.990;2022-07-04T01:50:51;15.27;;;10.57;;
1088;SDS011;533;53.556;9.990;2022-07-04T01:53:42;15.53;;;11.10;;
1088;SDS011;533;53.556;9.990;2022-07-04T01:56:32;14.13;;;11.63;;
1088;SDS011;533;53.556;9.990;2022-07-04T01:59:23;15.63;;;11.83;;
1088;SDS011;533;53.556;9.990;2022-07-04T02:02:34;15.20;;;11.97;;
1088;SDS011;533;53.556;9.990;2022-07-04T02:05:25;17.10;;;12.17;;
1088;SDS011;533;53.556;9.990;2022-07-04T02:08:16;17.10;;;11.73;;
1088;SDS011;533;53.556;9.990;2022-07-04T02:11:06;15.20;;;12.83;;
1088;SDS011;533;53.556;9.990;2022-07-04T02:13:56;16.90;;;12.73;;
1088;SDS011;533;53.556;9.990;2022-07-04T02:16:47;14.63;;;11.50;;
1088;SDS011;533;53.556;9.990;2022-07-04T02:19:37;18.67;;;12.33;;
1088;SDS011;533;53.556;9.990;2022-07-04T02:22:28;17.07;;;11.10;;
1088;SDS011;533;53.556;9.990;2022-07-04T02:25:18;12.53;;;10.97;;
1088;SDS011;533;53.556;9.990;2022-07-04T02:28:08;11.83;;;10.63;;
1088;SDS011;533;53.556;9.990;2022-07-04T02:30:58;12.30;;;11.00;;
1088;SDS011;533;53.556;9.990;2022-07-04T02:33:49;14.57;;;10.93;;
1088;SDS011;533;53.556;9.990;2022-07-04T02:36:39;15.43;;;11.43;;
1088;SDS011;533;53.556;9.990;2022-07-04T02:39:30;11.60;;;10.33;;
1088;SDS011;533;53.556;9.990;2022-07-04T02:42:20;12.20;;;9.77;;
1088;SDS011;533;53.556;9.990;2022-07-04T02:45:11;12.40;;;9.80;;
1088;SDS011;533;53.556;9.990;2022-07-04T02:48:02;14.10;;;10.30;;
1088;SDS011;533;53.556;9.990;2022-07-04T02:50:53;11.40;;;8.83;;
1088;SDS011;533;53.556;9.990;2022-07-04T02:53:43;10.50;;;9.37;;
1088;SDS011;533;53.556;9.990;2022-07-04T02:56:34;11.97;;;8.63;;
1088;SDS011;533;53.556;9.990;2022-07-04T02:59:24;16.40;;;10.20;;
1088;SDS011;533;53.556;9.990;2022-07-04T03:02:15;14.63;;;11.23;;
1088;SDS011;533;53.556;9.990;2022-07-04T03:05:05;13.80;;;10.07;;
1088;SDS011;533;53.556;9.990;2022-07-04T03:07:56;12.07;;;10.77;;
1088;SDS011;533;53.556;9.990;2022-07-04T03:10:48;12.27;;;10.63;;
1088;SDS011;533;53.556;9.990;2022-07-04T03:13:40;14.80;;;10.57;;
1088;SDS011;533;53.556;9.990;2022-07-04T03:16:30;15.00;;;13.50;;
1088;SDS011;533;53.556;9.990;2022-07-04T03:19:21;22.10;;;14.10;;
1088;SDS011;533;53.556;9.990;2022-07-04T03:22:12;15.20;;;11.77;;
1088;SDS011;533;53.556;9.990;2022-07-04T03:25:03;15.17;;;12.90;;
1088;SDS011;533;53.556;9.990;2022-07-04T03:27:55;14.93;;;11.90;;
1088;SDS011;533;53.556;9.990;2022-07-04T03:30:46;14.33;;;12.57;;
1088;SDS011;533;53.556;9.990;2022-07-04T03:33:37;15.00;;;11.73;;
1088;SDS011;533;53.556;9.990;2022-07-04T03:36:28;15.67;;;13.17;;
1088;SDS011;533;53.556;9.990;2022-07-04T03:39:19;19.60;;;15.57;;
1088;SDS011;533;53.556;9.990;2022-07-04T03:42:10;16.30;;;14.47;;
1088;SDS011;533;53.556;9.990;2022-07-04T03:45:01;18.53;;;14.27;;
1088;SDS011;533;53.556;9.990;2022-07-04T03:47:52;17.00;;;13.93;;
1088;SDS011;533;53.556;9.990;2022-07-04T03:50:43;17.20;;;14.73;;
1088;SDS011;533;53.556;9.990;2022-07-04T03:53:34;18.43;;;15.13;;
1088;SDS011;533;53.556;9.990;2022-07-04T03:56:25;16.07;;;13.50;;
1088;SDS011;533;53.556;9.990;2022-07-04T03:59:16;16.80;;;14.20;;
1088;SDS011;533;53.556;9.990;2022-07-04T04:02:06;16.13;;;13.80;;
1088;SDS011;533;53.556;9.990;2022-07-04T04:04:57;17.30;;;14.13;;
1088;SDS011;533;53.556;9.990;2022-07-04T04:08:06;19.20;;;13.33;;
1088;SDS011;533;53.556;9.990;2022-07-04T04:10:57;20.63;;;14.27;;
1088;SDS011;533;53.556;9.990;2022-07-04T04:13:48;18.47;;;13.50;;
1088;SDS011;533;53.556;9.990;2022-07-04T04:16:39;18.90;;;13.77;;
1088;SDS011;533;53.556;9.990;2022-07-04T04:19:32;15.90;;;14.00;;
1088;SDS011;533;53.556;9.990;2022-07-04T04:22:22;16.07;;;13.60;;
1088;SDS011;533;53.556;9.990;2022-07-04T04:25:13;15.10;;;13.27;;
1088;SDS011;533;53.556;9.990;2022-07-04T04:28:04;15.80;;;13.33;;
1088;SDS011;533;53.556;9.990;2022-07-04T04:30:55;18.07;;;14.00;;
1088;SDS011;533;53.556;9.990;2022-07-04T04:33:46;17.67;;;12.73;;
1088;SDS011;533;53.556;9.990;2022-07-04T04:36:37;15.80;;;12.20;;
1088;SDS011;533;53.556;9.990;2022-07-04T04:39:28;17.20;;;12.17;;
1088;SDS011;533;53.556;9.990;2022-07-04T04:42:19;16.73;;;11.77;;
1088;SDS011;533;53.556;9.990;2022-07-04T04:45:10;14.73;;;11.93;;
1088;SDS011;533;53.556;9.990;2022-07-04T04:48:01;16.10;;;13.00;;
1088;SDS011;533;53.556;9.990;2022-07-04T04:50:52;13.20;;;10.63;;
1088;SDS011;533;53.556;9.990;2022-07-04T04:53:43;11.77;;;9.67;;
1088;SDS011;533;53.556;9.990;2022-07-04T04:56:33;13.33;;;9.50;;
1088;SDS011;533;53.556;9.990;2022-07-04T04:59:24;15.90;;;10.43;;
1088;SDS011;533;53.556;9.990;2022-07-04T05:02:15;13.80;;;10.80;;
1088;SDS011;533;53.556;9.990;2022-07-04T05:05:06;12.77;;;9.70;;
1088;SDS011;533;53.556;9.990;2022-07-04T05:07:57;17.10;;;9.97;;
1088;SDS011;533;53.556;9.990;2022-07-04T05:10:48;11.27;;;9.43;;
1088;SDS011;533;53.556;9.990;2022-07-04T05:13:39;15.47;;;8.50;;
1088;SDS011;533;53.556;9.990;2022-07-04T05:16:30;10.53;;;8.77;;
1088;SDS011;533;53.556;9.990;2022-07-04T05:19:21;10.53;;;7.20;;
1088;SDS011;533;53.556;9.990;2022-07-04T05:22:12;10.17;;;7.00;;
1088;SDS011;533;53.556;9.990;2022-07-04T05:25:03;10.40;;;7.50;;
1088;SDS011;533;53.556;9.990;2022-07-04T05:27:55;11.93;;;7.30;;
1088;SDS011;533;53.556;9.990;2022-07-04T05:30:45;10.63;;;6.70;;
1088;SDS011;533;53.556;9.990;2022-07-04T05:33:36;8.67;;;6.10;;
1088;SDS011;533;53.556;9.990;2022-07-04T05:36:27;9.43;;;6.63;;
1088;SDS011;533;53.556;9.990;2022-07-04T05:39:19;10.90;;;6.43;;
1088;SDS011;533;53.556;9.990;2022-07-04T05:42:10;9.37;;;5.70;;
1088;SDS011;533;53.556;9.990;2022-07-04T05:45:01;18.70;;;8.13;;
1088;SDS011;533;53.556;9.990;2022-07-04T05:47:52;11.00;;;5.50;;
1088;SDS011;533;53.556;9.990;2022-07-04T05:50:43;6.10;;;5.47;;
1088;SDS011;533;53.556;9.990;2022-07-04T05:53:34;10.80;;;5.07;;
1088;SDS011;533;53.556;9.990;2022-07-04T05:56:25;10.83;;;5.63;;
1088;SDS011;533;53.556;9.990;2022-07-04T05:59:16;7.53;;;4.63;;
1088;SDS011;533;53.556;9.990;2022-07-04T06:02:07;7.20;;;5.17;;
1088;SDS011;533;53.556;9.990;2022-07-04T06:04:58;7.43;;;5.47;;
1088;SDS011;533;53.556;9.990;2022-07-04T06:07:49;14.13;;;5.43;;
1088;SDS011;533;53.556;9.990;2022-07-04T06:10:40;6.50;;;3.97;;
1088;SDS011;533;53.556;9.990;2022-07-04T06:13:31;7.10;;;4.70;;
1088;SDS011;533;53.556;9.990;2022-07-04T06:16:22;10.83;;;4.20;;
1088;SDS011;533;53.556;9.990;2022-07-04T06:19:12;8.13;;;4.27;;
1088;SDS011;533;53.556;9.990;2022-07-04T06:22:03;5.93;;;3.80;;
1088;SDS011;533;53.556;9.990;2022-07-04T06:24:54;9.13;;;4.97;;
1088;SDS011;533;53.556;9.990;2022-07-04T06:27:46;7.77;;;3.60;;
1088;SDS011;533;53.556;9.990;2022-07-04T06:30:38;6.57;;;4.93;;
1088;SDS011;533;53.556;9.990;2022-07-04T06:33:29;5.03;;;3.63;;
1088;SDS011;533;53.556;9.990;2022-07-04T06:36:20;6.80;;;3.60;;
1088;SDS011;533;53.556;9.990;2022-07-04T06:39:11;4.13;;;2.90;;
1088;SDS011;533;53.556;9.990;2022-07-04T06:42:02;8.57;;;3.20;;
1088;SDS011;533;53.556;9.990;2022-07-04T06:44:53;7.47;;;4.00;;
1088;SDS011;533;53.556;9.990;2022-07-04T06:47:44;9.90;;;3.93;;
1088;SDS011;533;53.556;9.990;2022-07-04T06:50:35;11.07;;;3.27;;
1088;SDS011;533;53.556;9.990;2022-07-04T06:53:29;4.80;;;2.90;;
1088;SDS011;533;53.556;9.990;2022-07-04T06:56:20;9.93;;;3.07;;
1088;SDS011;533;53.556;9.990;2022-07-04T06:59:11;5.10;;;2.80;;
1088;SDS011;533;53.556;9.990;2022-07-04T07:02:02;8.37;;;3.40;;
1088;SDS011;533;53.556;9.990;2022-07-04T07:04:56;5.20;;;3.00;;
1088;SDS011;533;53.556;9.990;2022-07-04T07:07:47;5.67;;;2.80;;
1088;SDS011;533;53.556;9.990;2022-07-04T07:10:38;8.90;;;3.17;;
1088;SDS011;533;53.556;9.990;2022-07-04T07:13:29;7.87;;;2.53;;
1088;SDS011;533;53.556;9.990;2022-07-04T07:16:20;4.83;;;3.00;;
1088;SDS011;533;53.556;9.990;2022-07-04T07:19:13;3.63;;;2.27;;
1088;SDS011;533;53.556;9.990;2022-07-04T07:22:04;5.97;;;2.13;;
1088;SDS011;533;53.556;9.990;2022-07-04T07:24:55;8.33;;;2.90;;
1088;SDS011;533;53.556;9.990;2022-07-04T07:27:46;5.33;;;2.40;;
1088;SDS011;533;53.556;9.990;2022-07-04T07:30:37;8.13;;;2.30;;
1088;SDS011;533;53.556;9.990;2022-07-04T07:33:28;8.40;;;2.73;;
1088;SDS011;533;53.556;9.990;2022-07-04T07:36:19;5.00;;;2.07;;
1088;SDS011;533;53.556;9.990;2022-07-04T07:39:10;7.00;;;3.00;;
1088;SDS011;533;53.556;9.990;2022-07-04T07:42:01;7.03;;;2.40;;
1088;SDS011;533;53.556;9.990;2022-07-04T07:44:53;6.77;;;2.30;;
1088;SDS011;533;53.556;9.990;2022-07-04T07:47:43;4.80;;;1.90;;
1088;SDS011;533;53.556;9.990;2022-07-04T07:50:34;5.07;;;1.77;;
1088;SDS011;533;53.556;9.990;2022-07-04T07:53:26;3.60;;;1.90;;
1088;SDS011;533;53.556;9.990;2022-07-04T07:56:18;2.73;;;1.60;;
1088;SDS011;533;53.556;9.990;2022-07-04T07:59:08;7.47;;;2.03;;
1088;SDS011;533;53.556;9.990;2022-07-04T08:01:59;5.20;;;2.00;;
1088;SDS011;533;53.556;9.990;2022-07-04T08:04:50;4.73;;;2.60;;
1088;SDS011;533;53.556;9.990;2022-07-04T08:07:41;5.93;;;3.17;;
1088;SDS011;533;53.556;9.990;2022-07-04T08:10:32;6.10;;;2.33;;
1088;SDS011;533;53.556;9.990;2022-07-04T08:13:23;4.30;;;2.37;;
1088;SDS011;533;53.556;9.990;2022-07-04T08:16:14;2.60;;;1.80;;
1088;SDS011;533;53.556;9.990;2022-07-04T08:19:05;3.97;;;2.60;;
1088;SDS011;533;53.556;9.990;2022-07-04T08:21:57;3.00;;;1.90;;
1088;SDS011;533;53.556;9.990;2022-07-04T08:25:04;6.27;;;2.80;;
1088;SDS011;533;53.556;9.990;2022-07-04T08:27:55;6.20;;;2.87;;
1088;SDS011;533;53.556;9.990;2022-07-04T08:30:46;2.67;;;1.93;;
1088;SDS011;533;53.556;9.990;2022-07-04T08:33:36;5.27;;;3.70;;
1088;SDS011;533;53.556;9.990;2022-07-04T08:36:28;4.30;;;2.10;;
1088;SDS011;533;53.556;9.990;2022-07-04T08:39:19;2.67;;;1.90;;
1088;SDS011;533;53.556;9.990;2022-07-04T08:42:11;5.73;;;2.13;;
1088;SDS011;533;53.556;9.990;2022-07-04T08:45:07;7.40;;;2.40;;
1088;SDS011;533;53.556;9.990;2022-07-04T08:48:02;3.30;;;2.03;;
1088;SDS011;533;53.556;9.990;2022-07-04T08:50:59;2.93;;;1.93;;
1088;SDS011;533;53.556;9.990;2022-07-04T08:54:04;3.23;;;1.63;;
1088;SDS011;533;53.556;9.990;2022-07-04T08:57:16;5.03;;;2.53;;
1088;SDS011;533;53.556;9.990;2022-07-04T09:00:25;3.77;;;1.90;;
1088;SDS011;533;53.556;9.990;2022-07-04T09:03:18;8.20;;;2.20;;
1088;SDS011;533;53.556;9.990;2022-07-04T09:06:10;9.07;;;3.70;;
1088;SDS011;533;53.556;9.990;2022-07-04T09:09:02;4.93;;;1.90;;
1088;SDS011;533;53.556;9.990;2022-07-04T09:11:54;4.30;;;1.93;;
1088;SDS011;533;53.556;9.990;2022-07-04T09:14:45;4.00;;;2.00;;
1088;SDS011;533;53.556;9.990;2022-07-04T09:17:36;7.63;;;2.40;;
1088;SDS011;533;53.556;9.990;2022-07-04T09:20:29;3.83;;;1.97;;
1088;SDS011;533;53.556;9.990;2022-07-04T09:23:23;4.33;;;1.83;;
1088;SDS011;533;53.556;9.990;2022-07-04T09:26:20;2.60;;;1.67;;
1088;SDS011;533;53.556;9.990;2022-07-04T09:29:11;7.60;;;2.67;;
1088;SDS011;533;53.556;9.990;2022-07-04T09:32:03;2.20;;;1.80;;
1088;SDS011;533;53.556;9.990;2022-07-04T09:34:54;4.17;;;1.80;;
1088;SDS011;533;53.556;9.990;2022-07-04T09:37:46;3.33;;;2.17;;
1088;SDS011;533;53.556;9.990;2022-07-04T09:40:39;7.93;;;3.23;;
1088;SDS011;533;53.556;9.990;2022-07-04T09:43:58;5.90;;;2.40;;
1088;SDS011;533;53.556;9.990;2022-07-04T09:46:54;4.03;;;2.17;;
1088;SDS011;533;53.556;9.990;2022-07-04T09:49:57;3.80;;;3.00;;
1088;SDS011;533;53.556;9.990;2022-07-04T09:53:02;3.33;;;1.70;;
1088;SDS011;533;53.556;9.990;2022-07-04T09:55:54;5.83;;;1.97;;
1088;SDS011;533;53.556;9.990;2022-07-04T09:58:55;3.67;;;1.77;;
1088;SDS011;533;53.556;9.990;2022-07-04T10:01:47;2.40;;;1.80;;
1088;SDS011;533;53.556;9.990;2022-07-04T10:04:44;2.73;;;1.60;;
1088;SDS011;533;53.556;9.990;2022-07-04T10:07:36;5.93;;;1.90;;
1088;SDS011;533;53.556;9.990;2022-07-04T10:10:36;3.57;;;1.97;;
1088;SDS011;533;53.556;9.990;2022-07-04T10:13:30;6.20;;;4.60;;
1088;SDS011;533;53.556;9.990;2022-07-04T10:16:22;2.27;;;1.70;;
1088;SDS011;533;53.556;9.990;2022-07-04T10:19:13;2.97;;;1.90;;
1088;SDS011;533;53.556;9.990;2022-07-04T10:22:06;4.13;;;2.17;;
1088;SDS011;533;53.556;9.990;2022-07-04T10:24:58;5.23;;;2.13;;
1088;SDS011;533;53.556;9.990;2022-07-04T10:27:50;3.30;;;1.87;;
1088;SDS011;533;53.556;9.990;2022-07-04T10:30:42;4.93;;;1.50;;
1088;SDS011;533;53.556;9.990;2022-07-04T10:33:33;4.10;;;1.60;;
1088;SDS011;533;53.556;9.990;2022-07-04T10:36:25;4.00;;;1.90;;
1088;SDS011;533;53.556;9.990;2022-07-04T10:39:22;2.60;;;1.80;;
1088;SDS011;533;53.556;9.990;2022-07-04T10:42:24;4.10;;;2.30;;
1088;SDS011;533;53.556;9.990;2022-07-04T10:45:37;4.40;;;2.40;;
1088;SDS011;533;53.556;9.990;2022-07-04T10:48:29;3.23;;;1.80;;
1088;SDS011;533;53.556;9.990;2022-07-04T10:51:38;2.67;;;1.50;;
1088;SDS011;533;53.556;9.990;2022-07-04T10:54:34;2.87;;;2.07;;
1088;SDS011;533;53.556;9.990;2022-07-04T10:57:25;6.93;;;1.70;;
1088;SDS011;533;53.556;9.990;2022-07-04T11:00:17;2.63;;;1.70;;
1088;SDS011;533;53.556;9.990;2022-07-04T11:03:17;3.20;;;1.43;;
1088;SDS011;533;53.556;9.990;2022-07-04T11:06:27;3.50;;;1.57;;
1088;SDS011;533;53.556;9.990;2022-07-04T11:09:28;3.50;;;1.70;;
1088;SDS011;533;53.556;9.990;2022-07-04T11:12:19;2.23;;;1.57;;
1088;SDS011;533;53.556;9.990;2022-07-04T11:15:10;2.37;;;1.50;;
1088;SDS011;533;53.556;9.990;2022-07-04T11:18:03;3.93;;;2.03;;
1088;SDS011;533;53.556;9.990;2022-07-04T11:20:56;4.03;;;1.53;;
1088;SDS011;533;53.556;9.990;2022-07-04T11:23:50;2.73;;;1.50;;
1088;SDS011;533;53.556;9.990;2022-07-04T11:26:26;5.53;;;1.93;;
1088;SDS011;533;53.556;9.990;2022-07-04T11:28:59;3.90;;;2.30;;
1088;SDS011;533;53.556;9.990;2022-07-04T11:31:35;4.17;;;2.37;;
1088;SDS011;533;53.556;9.990;2022-07-04T11:34:09;3.80;;;2.00;;
1088;SDS011;533;53.556;9.990;2022-07-04T11:36:42;4.47;;;3.47;;
1088;SDS011;533;53.556;9.990;2022-07-04T11:39:19;10.00;;;2.00;;
1088;SDS011;533;53.556;9.990;2022-07-04T11:41:52;3.60;;;2.10;;
1088;SDS011;533;53.556;9.990;2022-07-04T11:44:47;5.23;;;3.43;;
1088;SDS011;533;53.556;9.990;2022-07-04T11:47:36;5.20;;;1.67;;
1088;SDS011;533;53.556;9.990;2022-07-04T11:50:11;5.30;;;2.53;;
1088;SDS011;533;53.556;9.990;2022-07-04T11:52:47;5.87;;;2.20;;
1088;SDS011;533;53.556;9.990;2022-07-04T11:55:52;5.13;;;1.90;;
1088;SDS011;533;53.556;9.990;2022-07-04T11:58:25;3.97;;;2.13;;
1088;SDS011;533;53.556;9.990;2022-07-04T12:00:58;2.90;;;1.20;;
1088;SDS011;533;53.556;9.990;2022-07-04T12:03:31;2.53;;;1.60;;
1088;SDS011;533;53.556;9.990;2022-07-04T12:06:05;3.60;;;1.80;;
1088;SDS011;533;53.556;9.990;2022-07-04T12:08:38;7.10;;;2.40;;
1088;SDS011;533;53.556;9.990;2022-07-04T12:11:10;3.33;;;1.93;;
1088;SDS011;533;53.556;9.990;2022-07-04T12:13:43;3.40;;;1.60;;
1088;SDS011;533;53.556;9.990;2022-07-04T12:16:15;2.20;;;1.60;;
1088;SDS011;533;53.556;9.990;2022-07-04T12:18:48;2.20;;;1.30;;
1088;SDS011;533;53.556;9.990;2022-07-04T12:21:21;5.17;;;1.67;;
1088;SDS011;533;53.556;9.990;2022-07-04T12:23:55;4.90;;;1.77;;
1088;SDS011;533;53.556;9.990;2022-07-04T12:26:47;2.60;;;1.40;;
1088;SDS011;533;53.556;9.990;2022-07-04T12:29:21;5.07;;;2.80;;
1088;SDS011;533;53.556;9.990;2022-07-04T12:32:03;4.13;;;1.80;;
1088;SDS011;533;53.556;9.990;2022-07-04T12:34:38;4.73;;;2.30;;
1088;SDS011;533;53.556;9.990;2022-07-04T12:37:12;3.87;;;2.00;;
1088;SDS011;533;53.556;9.990;2022-07-04T12:39:45;3.17;;;2.17;;
1088;SDS011;533;53.556;9.990;2022-07-04T12:42:18;5.70;;;2.10;;
1088;SDS011;533;53.556;9.990;2022-07-04T12:44:51;3.70;;;1.70;;
1088;SDS011;533;53.556;9.990;2022-07-04T12:47:24;3.10;;;1.47;;
1088;SDS011;533;53.556;9.990;2022-07-04T12:50:15;5.80;;;1.80;;
1088;SDS011;533;53.556;9.990;2022-07-04T12:52:57;6.27;;;2.83;;
1088;SDS011;533;53.556;9.990;2022-07-04T12:55:33;3.37;;;2.00;;
1088;SDS011;533;53.556;9.990;2022-07-04T12:58:05;3.37;;;1.70;;
1088;SDS011;533;53.556;9.990;2022-07-04T13:00:38;3.30;;;2.50;;
1088;SDS011;533;53.556;9.990;2022-07-04T13:03:11;3.50;;;1.73;;
1088;SDS011;533;53.556;9.990;2022-07-04T13:05:44;3.60;;;1.50;;
1088;SDS011;533;53.556;9.990;2022-07-04T13:08:17;3.13;;;1.70;;
1088;SDS011;533;53.556;9.990;2022-07-04T13:10:49;4.53;;;2.03;;
1088;SDS011;533;53.556;9.990;2022-07-04T13:13:42;4.30;;;2.67;;
1088;SDS011;533;53.556;9.990;2022-07-04T13:16:15;4.60;;;2.20;;
1088;SDS011;533;53.556;9.990;2022-07-04T13:18:47;6.80;;;2.20;;
1088;SDS011;533;53.556;9.990;2022-07-04T13:21:20;4.13;;;1.80;;
1088;SDS011;533;53.556;9.990;2022-07-04T13:23:53;5.10;;;2.50;;
1088;SDS011;533;53.556;9.990;2022-07-04T13:26:26;3.00;;;1.90;;
1088;SDS011;533;53.556;9.990;2022-07-04T13:29:02;6.20;;;2.20;;
1088;SDS011;533;53.556;9.990;2022-07-04T13:31:36;3.00;;;2.40;;
1088;SDS011;533;53.556;9.990;2022-07-04T13:34:09;6.53;;;2.33;;
1088;SDS011;533;53.556;9.990;2022-07-04T13:36:41;6.33;;;2.47;;
1088;SDS011;533;53.556;9.990;2022-07-04T13:39:14;5.80;;;2.13;;
1088;SDS011;533;53.556;9.990;2022-07-04T13:42:08;6.23;;;2.10;;
1088;SDS011;533;53.556;9.990;2022-07-04T13:44:41;3.83;;;2.50;;
1088;SDS011;533;53.556;9.990;2022-07-04T13:47:13;7.50;;;2.47;;
1088;SDS011;533;53.556;9.990;2022-07-04T13:49:47;5.03;;;2.00;;
1088;SDS011;533;53.556;9.990;2022-07-04T13:52:20;5.67;;;2.30;;
1088;SDS011;533;53.556;9.990;2022-07-04T13:54:52;9.07;;;3.70;;
1088;SDS011;533;53.556;9.990;2022-07-04T13:57:25;15.13;;;2.87;;
1088;SDS011;533;53.556;9.990;2022-07-04T13:59:58;3.70;;;2.30;;
1088;SDS011;533;53.556;9.990;2022-07-04T14:02:31;4.30;;;2.93;;
1088;SDS011;533;53.556;9.990;2022-07-04T14:05:03;4.80;;;1.97;;
1088;SDS011;533;53.556;9.990;2022-07-04T14:07:36;3.00;;;2.20;;
1088;SDS011;533;53.556;9.990;2022-07-04T14:10:09;4.17;;;2.57;;
1088;SDS011;533;53.556;9.990;2022-07-04T14:12:42;4.57;;;2.50;;
1088;SDS011;533;53.556;9.990;2022-07-04T14:15:14;3.80;;;2.50;;
1088;SDS011;533;53.556;9.990;2022-07-04T14:17:48;8.27;;;2.63;;
1088;SDS011;533;53.556;9.990;2022-07-04T14:20:20;3.43;;;2.00;;
1088;SDS011;533;53.556;9.990;2022-07-04T14:22:53;4.73;;;2.00;;
1088;SDS011;533;53.556;9.990;2022-07-04T14:25:25;4.30;;;2.17;;
1088;SDS011;533;53.556;9.990;2022-07-04T14:27:58;7.03;;;2.43;;
1088;SDS011;533;53.556;9.990;2022-07-04T14:30:30;5.90;;;2.40;;
1088;SDS011;533;53.556;9.990;2022-07-04T14:33:03;4.77;;;1.97;;
1088;SDS011;533;53.556;9.990;2022-07-04T14:35:36;2.40;;;1.33;;
1088;SDS011;533;53.556;9.990;2022-07-04T14:38:08;6.47;;;2.00;;
1088;SDS011;533;53.556;9.990;2022-07-04T14:40:41;6.60;;;1.70;;
1088;SDS011;533;53.556;9.990;2022-07-04T14:43:16;4.67;;;2.03;;
1088;SDS011;533;53.556;9.990;2022-07-04T14:45:49;3.80;;;2.90;;
1088;SDS011;533;53.556;9.990;2022-07-04T14:48:22;4.47;;;2.27;;
1088;SDS011;533;53.556;9.990;2022-07-04T14:50:55;3.57;;;1.73;;
1088;SDS011;533;53.556;9.990;2022-07-04T14:53:27;4.63;;;1.80;;
1088;SDS011;533;53.556;9.990;2022-07-04T14:56:00;4.23;;;2.40;;
1088;SDS011;533;53.556;9.990;2022-07-04T14:58:33;3.93;;;2.40;;
1088;SDS011;533;53.556;9.990;2022-07-04T15:01:05;3.03;;;2.17;;
1088;SDS011;533;53.556;9.990;2022-07-04T15:03:39;3.70;;;1.97;;
1088;SDS011;533;53.556;9.990;2022-07-04T15:06:11;7.10;;;2.70;;
1088;SDS011;533;53.556;9.990;2022-07-04T15:08:43;5.27;;;2.67;;
1088;SDS011;533;53.556;9.990;2022-07-04T15:11:16;3.20;;;2.60;;
1088;SDS011;533;53.556;9.990;2022-07-04T15:13:52;3.47;;;2.10;;
1088;SDS011;533;53.556;9.990;2022-07-04T15:16:25;3.97;;;2.53;;
1088;SDS011;533;53.556;9.990;2022-07-04T15:18:58;12.70;;;2.27;;
1088;SDS011;533;53.556;9.990;2022-07-04T15:21:30;3.67;;;2.07;;
1088;SDS011;533;53.556;9.990;2022-07-04T15:24:22;15.43;;;2.87;;
1088;SDS011;533;53.556;9.990;2022-07-04T15:26:55;2.73;;;2.07;;
1088;SDS011;533;53.556;9.990;2022-07-04T15:29:29;4.70;;;1.90;;
1088;SDS011;533;53.556;9.990;2022-07-04T15:32:02;8.27;;;1.90;;
1088;SDS011;533;53.556;9.990;2022-07-04T15:34:41;5.63;;;2.53;;
1088;SDS011;533;53.556;9.990;2022-07-04T15:37:33;3.30;;;2.20;;
1088;SDS011;533;53.556;9.990;2022-07-04T15:40:08;3.90;;;1.70;;
1088;SDS011;533;53.556;9.990;2022-07-04T15:42:40;4.90;;;2.10;;
1088;SDS011;533;53.556;9.990;2022-07-04T15:45:13;7.23;;;2.80;;
1088;SDS011;533;53.556;9.990;2022-07-04T15:47:45;4.10;;;1.90;;
1088;SDS011;533;53.556;9.990;2022-07-04T15:50:18;8.93;;;2.30;;
1088;SDS011;533;53.556;9.990;2022-07-04T15:52:50;3.50;;;2.47;;
1088;SDS011;533;53.556;9.990;2022-07-04T15:55:22;4.00;;;2.70;;
1088;SDS011;533;53.556;9.990;2022-07-04T15:57:55;3.23;;;2.30;;
1088;SDS011;533;53.556;9.990;2022-07-04T16:00:28;5.67;;;3.80;;
1088;SDS011;533;53.556;9.990;2022-07-04T16:03:01;4.63;;;2.97;;
1088;SDS011;533;53.556;9.990;2022-07-04T16:05:33;4.53;;;2.27;;
1088;SDS011;533;53.556;9.990;2022-07-04T16:08:07;4.17;;;3.07;;
1088;SDS011;533;53.556;9.990;2022-07-04T16:10:39;4.90;;;2.37;;
1088;SDS011;533;53.556;9.990;2022-07-04T16:13:12;3.60;;;2.30;;
1088;SDS011;533;53.556;9.990;2022-07-04T16:15:45;5.27;;;2.40;;
1088;SDS011;533;53.556;9.990;2022-07-04T16:18:17;5.20;;;2.10;;
1088;SDS011;533;53.556;9.990;2022-07-04T16:20:50;6.10;;;2.33;;
1088;SDS011;533;53.556;9.990;2022-07-04T16:23:22;3.80;;;2.27;;
1088;SDS011;533;53.556;9.990;2022-07-04T16:25:55;6.37;;;3.27;;
1088;SDS011;533;53.556;9.990;2022-07-04T16:28:27;3.60;;;2.63;;
1088;SDS011;533;53.556;9.990;2022-07-04T16:31:00;4.67;;;2.73;;
1088;SDS011;533;53.556;9.990;2022-07-04T16:33:32;4.83;;;2.77;;
1088;SDS011;533;53.556;9.990;2022-07-04T16:36:05;3.90;;;2.37;;
1088;SDS011;533;53.556;9.990;2022-07-04T16:38:38;4.07;;;2.50;;
1088;SDS011;533;53.556;9.990;2022-07-04T16:41:10;3.77;;;2.30;;
1088;SDS011;533;53.556;9.990;2022-07-04T16:43:43;5.23;;;2.47;;
1088;SDS011;533;53.556;9.990;2022-07-04T16:46:15;3.63;;;2.60;;
1088;SDS011;533;53.556;9.990;2022-07-04T16:48:48;5.40;;;2.33;;
1088;SDS011;533;53.556;9.990;2022-07-04T16:51:22;8.17;;;3.33;;
1088;SDS011;533;53.556;9.990;2022-07-04T16:53:54;5.23;;;2.50;;
1088;SDS011;533;53.556;9.990;2022-07-04T16:56:27;7.53;;;3.00;;
1088;SDS011;533;53.556;9.990;2022-07-04T16:59:00;6.47;;;2.90;;
1088;SDS011;533;53.556;9.990;2022-07-04T17:01:33;5.87;;;2.60;;
1088;SDS011;533;53.556;9.990;2022-07-04T17:04:05;4.37;;;2.20;;
1088;SDS011;533;53.556;9.990;2022-07-04T17:06:38;4.50;;;2.70;;
1088;SDS011;533;53.556;9.990;2022-07-04T17:09:10;3.60;;;2.37;;
1088;SDS011;533;53.556;9.990;2022-07-04T17:11:43;6.30;;;2.53;;
1088;SDS011;533;53.556;9.990;2022-07-04T17:14:16;4.87;;;2.23;;
1088;SDS011;533;53.556;9.990;2022-07-04T17:16:48;5.03;;;2.20;;
1088;SDS011;533;53.556;9.990;2022-07-04T17:19:21;5.80;;;2.03;;